Kaan Kalkavan — TCTX2 — position and weather

sailwx.info

Track history (hours):
 
Tides and Currents Weather Stations Pressure Air Temp Water Temp Dewpoint Dewpoint Depression Visibility Wind Speed Wind Dir Waves Ship Positions

Kaan Kalkavan

Last reported at 2017-Dec-11 08:57 UTC. Time now 2017-Dec-12 15:50 UTC.
Position N 32°05' E 034°31'.

Length 183 m; draft 9.4 m.

Type: Ship. MMSI: 271043028.

Date/timePositionNaut miles runAvg speedWind from/ knotsBaromVisibWave heightAir tempDewpointWater temp
2017-Dec-11 08:57N 32°05' E 034°31'817.2
2017-Dec-11 08:30N 32°12' E 034°34'917.2
2017-Dec-11 08:00N 32°20' E 034°37'816.9
2017-Dec-11 07:30N 32°28' E 034°39'816.6
2017-Dec-11 07:00N 32°36' E 034°37'817.0
2017-Dec-11 06:30N 32°45' E 034°38'816.4
2017-Dec-11 06:00N 32°53' E 034°40'1016.8
2017-Dec-11 05:24N 32°52' E 034°52'8 0.4
2017-Dec-10 10:38N 32°50' E 035°01'3 5.4
2017-Dec-10 10:05N 32°52' E 034°58'110.1
2017-Dec-10 10:01N 32°52' E 034°58'815.1
2017-Dec-10 09:31N 32°54' E 034°49'815.5
2017-Dec-10 09:00N 32°55' E 034°40'815.7
2017-Dec-10 08:30N 32°56' E 034°30'  
2017-Dec-07 04:36N 36°42' E 027°20'216.2
2017-Dec-07 04:30N 36°43' E 027°20'3313.3
2017-Dec-07 02:02N 37°11' E 026°59'016.3
2017-Dec-07 02:01N 37°12' E 026°58'816.2
2017-Dec-07 01:30N 37°19' E 026°54'816.0
2017-Dec-07 01:00N 37°26' E 026°48'816.0
2017-Dec-07 00:30N 37°31' E 026°41'816.0
2017-Dec-07 00:00N 37°38' E 026°35'1016.0
2017-Dec-06 23:21N 37°47' E 026°28'615.9
2017-Dec-06 23:00N 37°52' E 026°25'  
2017-Dec-01 23:53N 37°52' E 026°25'1217.5
2017-Dec-01 23:12N 37°41' E 026°32'417.5
2017-Dec-01 22:58N 37°38' E 026°35'817.1
2017-Dec-01 22:30N 37°32' E 026°41'817.0
2017-Dec-01 22:00N 37°25' E 026°48'917.0
2017-Dec-01 21:30N 37°18' E 026°54'4115.4
2017-Dec-01 18:51N 36°44' E 027°21'1615.2
2017-Dec-01 17:49N 36°34' E 027°36'13816.9
2017-Dec-01 09:37N 36°02' E 030°23'317.3
2017-Dec-01 09:29N 36°02' E 030°26'  
Track history (hours):
 
Tides and Currents Weather Stations Pressure Air Temp Water Temp Dewpoint Dewpoint Depression Visibility Wind Speed Wind Dir Waves Ship Positions

Kaan Kalkavan

Last reported at 2017-Dec-11 08:57 UTC. Time now 2017-Dec-12 15:50 UTC.
Position N 32°05' E 034°31'.

Length 183 m; draft 9.4 m.

Type: Ship. MMSI: 271043028.

Date/timePositionNaut miles runAvg speedWind from/ knotsBaromVisibWave heightAir tempDewpointWater temp
2017-Dec-11 08:57N 32°05' E 034°31'817.2
2017-Dec-11 08:30N 32°12' E 034°34'917.2
2017-Dec-11 08:00N 32°20' E 034°37'816.9
2017-Dec-11 07:30N 32°28' E 034°39'816.6
2017-Dec-11 07:00N 32°36' E 034°37'817.0
2017-Dec-11 06:30N 32°45' E 034°38'816.4
2017-Dec-11 06:00N 32°53' E 034°40'1016.8
2017-Dec-11 05:24N 32°52' E 034°52'8 0.4
2017-Dec-10 10:38N 32°50' E 035°01'3 5.4
2017-Dec-10 10:05N 32°52' E 034°58'110.1
2017-Dec-10 10:01N 32°52' E 034°58'815.1
2017-Dec-10 09:31N 32°54' E 034°49'815.5
2017-Dec-10 09:00N 32°55' E 034°40'815.7
2017-Dec-10 08:30N 32°56' E 034°30'  
2017-Dec-07 04:36N 36°42' E 027°20'216.2
2017-Dec-07 04:30N 36°43' E 027°20'3313.3
2017-Dec-07 02:02N 37°11' E 026°59'016.3
2017-Dec-07 02:01N 37°12' E 026°58'816.2
2017-Dec-07 01:30N 37°19' E 026°54'816.0
2017-Dec-07 01:00N 37°26' E 026°48'816.0
2017-Dec-07 00:30N 37°31' E 026°41'816.0
2017-Dec-07 00:00N 37°38' E 026°35'1016.0
2017-Dec-06 23:21N 37°47' E 026°28'615.9
2017-Dec-06 23:00N 37°52' E 026°25'  
2017-Dec-01 23:53N 37°52' E 026°25'1217.5
2017-Dec-01 23:12N 37°41' E 026°32'417.5
2017-Dec-01 22:58N 37°38' E 026°35'817.1
2017-Dec-01 22:30N 37°32' E 026°41'817.0
2017-Dec-01 22:00N 37°25' E 026°48'917.0
2017-Dec-01 21:30N 37°18' E 026°54'4115.4
2017-Dec-01 18:51N 36°44' E 027°21'1615.2
2017-Dec-01 17:49N 36°34' E 027°36'13816.9
2017-Dec-01 09:37N 36°02' E 030°23'317.3
2017-Dec-01 09:29N 36°02' E 030°26'  

Dump ship's entire track history